Time;durP1;ratioP1;P1;durP2;ratioP2;P2;SDS_P1;SDS_P2;PMS_P1;PMS_P2;Temp;Humidity;BMP_temperature;BMP_pressure;BME280_temperature;BME280_humidity;BME280_pressure;Samples;Min_cycle;Max_cycle;Signal;HPM_P1;HPM_P2
2021/06/16 00:01:47;;;;;;;;;;;;;;;18.25;52.01;101793.50;5137282;27;20430;-40
2021/06/16 00:04:12;;;;;;;;;;;;;;;18.24;53.59;101791.00;5138497;27;20285;-40
2021/06/16 00:06:38;;;;;;;;;;;;;;;18.17;52.25;101788.47;5137464;27;19952;-40
2021/06/16 00:09:04;;;;;;;;;;;;;;;18.17;52.09;101783.00;5137094;27;19956;-40
2021/06/16 00:11:29;;;;;;;;;;;;;;;18.15;52.00;101785.16;5137670;27;20254;-40
2021/06/16 00:13:55;;;;;;;;;;;;;;;18.13;51.90;101786.50;5137333;27;20006;-40
2021/06/16 00:16:20;;;;;;;;;;;;;;;18.09;54.26;101777.97;5137653;27;20343;-40
2021/06/16 00:18:45;;;;;;;;;;;;;;;18.02;52.47;101777.38;5138079;27;19908;-40
2021/06/16 00:21:11;;;;;;;;;;;;;;;17.98;52.22;101779.78;5137770;27;20363;-40
2021/06/16 00:23:37;;;;;;;;;;;;;;;17.99;52.06;101778.69;5137774;27;19965;-40
2021/06/16 00:26:02;;;;;;;;;;;;;;;17.99;52.29;101778.69;5137476;27;20339;-40
2021/06/16 00:28:27;;;;;;;;;;;;;;;18.00;52.00;101771.31;5136764;27;19907;-40
2021/06/16 00:30:52;;;;;;;;;;;;;;;17.98;52.13;101768.84;5137137;27;19919;-40
2021/06/16 00:33:18;;;;;;;;;;;;;;;17.97;51.97;101763.63;5137002;27;19950;-40
2021/06/16 00:35:43;;;;;;;;;;;;;;;17.96;52.14;101768.28;5137292;27;19956;-40
2021/06/16 00:38:08;;;;;;;;;;;;;;;17.93;52.19;101765.22;5136891;27;20295;-40
2021/06/16 00:40:34;;;;;;;;;;;;;;;17.88;51.95;101766.00;5137638;27;19907;-40
2021/06/16 00:43:02;;;;;;;;;;;;;;;17.88;52.17;101767.91;5136768;27;19907;-40
2021/06/16 00:45:28;;;;;;;;;;;;;;;17.87;52.37;101763.53;5136755;27;19907;-40
2021/06/16 00:47:56;;;;;;;;;;;;;;;17.85;52.24;101776.63;5136388;27;19907;-41
2021/06/16 00:50:22;;;;;;;;;;;;;;;17.83;52.61;101771.44;5136954;27;20256;-40
2021/06/16 00:52:48;;;;;;;;;;;;;;;17.80;52.82;101762.91;5136293;27;20343;-40
2021/06/16 00:55:13;;;;;;;;;;;;;;;17.77;52.32;101761.53;5136817;27;19960;-40
2021/06/16 00:57:38;;;;;;;;;;;;;;;17.75;52.83;101769.13;5135894;27;19907;-40
2021/06/16 01:00:11;;;;;;;;;;;;;;;17.69;52.30;101757.28;5136706;27;20006;-40
2021/06/16 01:02:47;;;;;;;;;;;;;;;17.66;52.76;101757.78;5136363;27;19960;-40
2021/06/16 01:05:12;;;;;;;;;;;;;;;17.61;52.74;101752.25;5137269;27;20231;-40
2021/06/16 01:07:40;;;;;;;;;;;;;;;17.58;52.98;101747.31;5136835;27;19960;-40
2021/06/16 01:10:07;;;;;;;;;;;;;;;17.53;53.99;101747.25;5136267;27;19990;-40
2021/06/16 01:12:32;;;;;;;;;;;;;;;17.49;52.84;101746.94;5136187;27;19952;-40
2021/06/16 01:15:06;;;;;;;;;;;;;;;17.46;52.83;101744.69;5136438;27;19908;-40
2021/06/16 01:17:31;;;;;;;;;;;;;;;17.44;53.18;101743.31;5137134;27;19914;-40
2021/06/16 01:19:57;;;;;;;;;;;;;;;17.40;53.26;101745.72;5136041;27;20219;-40
2021/06/16 01:22:40;;;;;;;;;;;;;;;17.37;53.08;101735.31;5135956;27;19914;-40
2021/06/16 01:25:29;;;;;;;;;;;;;;;17.34;53.55;101745.94;5136495;27;19914;-40
2021/06/16 01:27:56;;;;;;;;;;;;;;;17.33;53.45;101747.03;5072821;28;20003;-40
2021/06/16 01:30:22;;;;;;;;;;;;;;;17.27;53.72;101742.53;5072534;28;19909;-40
2021/06/16 01:32:48;;;;;;;;;;;;;;;17.22;53.65;101741.41;5072282;28;19912;-41
2021/06/16 01:35:13;;;;;;;;;;;;;;;17.21;53.91;101750.69;5072543;28;20007;-41
2021/06/16 01:37:39;;;;;;;;;;;;;;;17.18;53.77;101751.22;5072447;28;20038;-40
2021/06/16 01:40:05;;;;;;;;;;;;;;;17.14;55.50;101752.78;5072923;28;20286;-40
2021/06/16 01:42:30;;;;;;;;;;;;;;;17.09;54.03;101743.69;5072927;28;19908;-40
2021/06/16 01:44:56;;;;;;;;;;;;;;;17.08;54.14;101742.88;5072568;28;19916;-41
2021/06/16 01:47:22;;;;;;;;;;;;;;;17.05;54.24;101735.16;5072045;28;20261;-40
2021/06/16 01:49:48;;;;;;;;;;;;;;;17.00;54.22;101732.38;5072809;28;19909;-40
2021/06/16 01:52:16;;;;;;;;;;;;;;;16.97;54.37;101738.31;5072067;28;19931;-40
2021/06/16 01:54:41;;;;;;;;;;;;;;;16.95;54.55;101735.03;5072176;28;20267;-40
2021/06/16 01:57:07;;;;;;;;;;;;;;;16.91;54.74;101728.41;5071912;28;19908;-41
2021/06/16 01:59:34;;;;;;;;;;;;;;;16.88;54.84;101739.84;5072062;28;19912;-40
2021/06/16 02:01:59;;;;;;;;;;;;;;;16.82;55.70;101727.19;5071724;28;19908;-40
2021/06/16 02:04:24;;;;;;;;;;;;;;;16.78;55.13;101724.13;5092160;27;20365;-40
2021/06/16 02:06:54;;;;;;;;;;;;;;;16.81;55.09;101725.53;5135273;27;19908;-40
2021/06/16 02:09:23;;;;;;;;;;;;;;;16.79;55.20;101724.94;5134357;27;19907;-40
2021/06/16 02:11:48;;;;;;;;;;;;;;;16.75;54.83;101718.34;5135720;27;19907;-40
2021/06/16 02:14:15;;;;;;;;;;;;;;;16.70;55.16;101727.25;5134830;27;19908;-40
2021/06/16 02:16:42;;;;;;;;;;;;;;;16.69;55.79;101718.25;5135467;27;19994;-40
2021/06/16 02:19:10;;;;;;;;;;;;;;;16.68;56.00;101724.75;5135282;27;20480;-40
2021/06/16 02:21:35;;;;;;;;;;;;;;;16.67;55.34;101712.19;5135013;27;19907;-40
2021/06/16 02:24:01;;;;;;;;;;;;;;;16.67;55.53;101714.94;5134959;27;19915;-40
2021/06/16 02:26:26;;;;;;;;;;;;;;;16.64;55.51;101717.31;5135292;27;19914;-40
2021/06/16 02:28:51;;;;;;;;;;;;;;;16.65;55.56;101708.06;5135703;27;19907;-40
2021/06/16 02:31:16;;;;;;;;;;;;;;;16.63;55.23;101702.84;5135201;27;20002;-40
2021/06/16 02:33:42;;;;;;;;;;;;;;;16.62;55.39;101712.13;5135272;27;20266;-40
2021/06/16 02:36:09;;;;;;;;;;;;;;;16.62;55.45;101698.47;5134630;27;19914;-40
2021/06/16 02:38:34;;;;;;;;;;;;;;;16.60;55.46;101710.72;5134812;27;19907;-40
2021/06/16 02:41:01;;;;;;;;;;;;;;;16.58;55.46;101702.78;5135662;27;19914;-40
2021/06/16 02:43:27;;;;;;;;;;;;;;;16.59;55.28;101701.72;5134555;27;19908;-40
2021/06/16 02:45:53;;;;;;;;;;;;;;;16.56;55.34;101699.47;5133167;28;19907;-40
2021/06/16 02:48:19;;;;;;;;;;;;;;;16.54;55.64;101695.31;5134549;27;19908;-40
2021/06/16 02:50:46;;;;;;;;;;;;;;;16.53;55.51;101689.03;5135073;27;19918;-40
2021/06/16 02:53:16;;;;;;;;;;;;;;;16.51;55.76;101690.38;5134690;27;19915;-40
2021/06/16 02:55:42;;;;;;;;;;;;;;;16.49;55.91;101679.69;5135237;27;20361;-40
2021/06/16 02:58:09;;;;;;;;;;;;;;;16.47;56.14;101690.06;5134382;27;19914;-40
2021/06/16 03:00:35;;;;;;;;;;;;;;;16.46;56.11;101685.66;5134259;27;19907;-40
2021/06/16 03:03:01;;;;;;;;;;;;;;;16.44;56.27;101679.63;5134278;27;20473;-40
2021/06/16 03:05:27;;;;;;;;;;;;;;;16.45;56.07;101681.31;5134863;27;19915;-41
2021/06/16 03:07:54;;;;;;;;;;;;;;;16.46;56.07;101672.03;5134559;27;19915;-40
2021/06/16 03:10:21;;;;;;;;;;;;;;;16.44;56.65;101672.25;5134880;27;19907;-40
2021/06/16 03:12:50;;;;;;;;;;;;;;;16.41;56.34;101670.03;5134750;27;19907;-40
2021/06/16 03:15:15;;;;;;;;;;;;;;;16.43;56.31;101672.50;5134539;27;19911;-40
2021/06/16 03:17:42;;;;;;;;;;;;;;;16.45;56.03;101673.09;5134425;27;20002;-40
2021/06/16 03:20:08;;;;;;;;;;;;;;;16.47;56.59;101670.94;5135019;27;19911;-40
2021/06/16 03:22:33;;;;;;;;;;;;;;;16.45;57.01;101664.91;5138289;27;19996;-40
2021/06/16 03:25:00;;;;;;;;;;;;;;;16.41;56.85;101672.78;5138883;27;19907;-40
2021/06/16 03:27:25;;;;;;;;;;;;;;;16.43;56.81;101672.50;5138048;27;19980;-40
2021/06/16 03:29:52;;;;;;;;;;;;;;;16.43;57.06;101667.06;5138300;27;20340;-40
2021/06/16 03:32:17;;;;;;;;;;;;;;;16.44;56.63;101672.25;5138360;27;19915;-40
2021/06/16 03:34:43;;;;;;;;;;;;;;;16.46;57.19;101663.84;5138461;27;20224;-40
2021/06/16 03:37:09;;;;;;;;;;;;;;;16.45;58.35;101659.47;5138118;27;19914;-40
2021/06/16 03:39:35;;;;;;;;;;;;;;;16.38;57.69;101654.16;5138757;27;19953;-40
2021/06/16 03:42:01;;;;;;;;;;;;;;;16.36;57.71;101656.31;5138247;27;19959;-40
2021/06/16 03:44:27;;;;;;;;;;;;;;;16.35;57.74;101664.75;5137997;27;19911;-40
2021/06/16 03:46:53;;;;;;;;;;;;;;;16.37;57.10;101662.59;5137686;27;19968;-40
2021/06/16 03:49:19;;;;;;;;;;;;;;;16.43;56.96;101669.78;5137580;27;20459;-40
2021/06/16 03:51:45;;;;;;;;;;;;;;;16.44;56.95;101661.34;5138145;27;20406;-40
2021/06/16 03:54:11;;;;;;;;;;;;;;;16.48;57.32;101658.94;5137785;27;19947;-40
2021/06/16 03:56:37;;;;;;;;;;;;;;;16.47;57.18;101657.28;5138074;27;19914;-40
2021/06/16 03:59:03;;;;;;;;;;;;;;;16.45;57.06;101659.47;5137994;27;19915;-40
2021/06/16 04:01:28;;;;;;;;;;;;;;;16.47;56.74;101655.38;5138162;27;19907;-40
2021/06/16 04:03:54;;;;;;;;;;;;;;;16.49;56.96;101646.94;5137295;27;19907;-40
2021/06/16 04:06:19;;;;;;;;;;;;;;;16.49;56.84;101646.94;5137846;27;20001;-40
2021/06/16 04:08:45;;;;;;;;;;;;;;;16.52;57.68;101643.72;5137305;27;20006;-40
2021/06/16 04:11:14;;;;;;;;;;;;;;;16.53;57.06;101637.16;5137833;27;19908;-40
2021/06/16 04:13:39;;;;;;;;;;;;;;;16.50;59.70;101647.78;5137365;27;19914;-40
2021/06/16 04:16:04;;;;;;;;;;;;;;;16.45;59.04;101638.44;5137999;27;19911;-40
2021/06/16 04:18:32;;;;;;;;;;;;;;;16.45;57.67;101638.44;5137599;27;20404;-40
2021/06/16 04:20:57;;;;;;;;;;;;;;;16.50;58.36;101632.22;5137506;27;19907;-40
2021/06/16 04:23:22;;;;;;;;;;;;;;;16.54;58.05;101633.34;5136994;27;20374;-40
2021/06/16 04:25:48;;;;;;;;;;;;;;;16.48;60.76;101631.63;5137222;27;19911;-40
2021/06/16 04:28:13;;;;;;;;;;;;;;;16.50;59.13;101629.50;5137106;27;19957;-40
2021/06/16 04:30:38;;;;;;;;;;;;;;;16.52;60.67;101631.97;5137172;27;20009;-40
2021/06/16 04:33:03;;;;;;;;;;;;;;;16.58;59.29;101630.97;5136107;27;19908;-40
2021/06/16 04:35:29;;;;;;;;;;;;;;;16.62;59.72;101626.66;5136971;27;19915;-40
2021/06/16 04:37:54;;;;;;;;;;;;;;;16.68;61.51;101623.72;5136902;27;19919;-40
2021/06/16 04:40:19;;;;;;;;;;;;;;;16.72;59.92;101624.91;5136592;27;20013;-40
2021/06/16 04:42:44;;;;;;;;;;;;;;;16.70;61.47;101618.84;5136703;27;19953;-40
2021/06/16 04:45:10;;;;;;;;;;;;;;;16.72;60.45;101608.53;5137068;27;19914;-40
2021/06/16 04:47:36;;;;;;;;;;;;;;;16.80;60.99;101614.63;5137057;27;20373;-40
2021/06/16 04:50:03;;;;;;;;;;;;;;;16.86;60.04;101616.34;5136755;27;20316;-40
2021/06/16 04:52:29;;;;;;;;;;;;;;;16.93;60.49;101612.34;5136615;27;19911;-40
2021/06/16 04:54:54;;;;;;;;;;;;;;;16.99;60.19;101613.25;5137196;27;19915;-40
2021/06/16 04:57:19;;;;;;;;;;;;;;;16.99;61.58;101614.06;5136489;27;19943;-40
2021/06/16 04:59:45;;;;;;;;;;;;;;;17.11;60.65;101618.56;5136193;27;20005;-40
2021/06/16 05:02:10;;;;;;;;;;;;;;;17.16;60.87;101603.03;5136478;27;19907;-40
2021/06/16 05:04:35;;;;;;;;;;;;;;;17.23;60.61;101611.06;5137019;27;19915;-40
2021/06/16 05:07:00;;;;;;;;;;;;;;;17.31;60.03;101602.38;5136371;27;20324;-40
2021/06/16 05:09:26;;;;;;;;;;;;;;;17.39;60.59;101604.66;5136038;27;19930;-40
2021/06/16 05:11:51;;;;;;;;;;;;;;;17.46;59.44;101608.00;5136010;27;19907;-40
2021/06/16 05:14:16;;;;;;;;;;;;;;;17.59;59.70;101604.03;5136741;27;19911;-40
2021/06/16 05:16:42;;;;;;;;;;;;;;;17.62;60.10;101608.97;5136254;27;19907;-40
2021/06/16 05:19:15;;;;;;;;;;;;;;;17.64;59.65;101600.50;5136063;27;19907;-41
2021/06/16 05:21:40;;;;;;;;;;;;;;;17.60;60.58;101608.41;5136058;27;19915;-40
2021/06/16 05:24:05;;;;;;;;;;;;;;;17.61;59.91;101603.75;5136060;27;19907;-40
2021/06/16 05:26:30;;;;;;;;;;;;;;;17.61;60.22;101607.31;5135933;27;19908;-40
2021/06/16 05:28:56;;;;;;;;;;;;;;;17.64;60.06;101595.03;5136438;27;19913;-42
2021/06/16 05:31:21;;;;;;;;;;;;;;;17.67;60.20;101602.75;5135777;27;19911;-41
2021/06/16 05:33:46;;;;;;;;;;;;;;;17.71;60.13;101599.22;5134103;27;19918;-40
2021/06/16 05:36:11;;;;;;;;;;;;;;;17.80;60.09;101598.75;5135808;27;19979;-40
2021/06/16 05:38:37;;;;;;;;;;;;;;;17.87;59.74;101600.19;5135415;27;19907;-40
2021/06/16 05:41:03;;;;;;;;;;;;;;;17.95;59.32;101590.66;5136485;27;19961;-41
2021/06/16 05:43:28;;;;;;;;;;;;;;;18.02;59.86;101585.81;5135040;27;19908;-40
2021/06/16 05:45:53;;;;;;;;;;;;;;;18.14;59.35;101589.16;5135467;27;20443;-40
2021/06/16 05:48:19;;;;;;;;;;;;;;;18.32;59.41;101589.84;5135549;27;20015;-41
2021/06/16 05:50:44;;;;;;;;;;;;;;;18.41;58.61;101583.59;5135870;27;19915;-46
2021/06/16 05:53:10;;;;;;;;;;;;;;;18.56;58.78;101582.84;5136307;27;19914;-40
2021/06/16 05:55:35;;;;;;;;;;;;;;;18.72;58.70;101583.78;5136306;27;19953;-40
2021/06/16 05:58:01;;;;;;;;;;;;;;;18.80;57.84;101585.19;5135086;27;19907;-40
2021/06/16 06:00:26;;;;;;;;;;;;;;;18.80;58.10;101585.19;5135099;27;19907;-40
2021/06/16 06:02:51;;;;;;;;;;;;;;;18.81;57.17;101581.34;5135015;27;19907;-40
2021/06/16 06:05:16;;;;;;;;;;;;;;;18.86;57.71;101584.09;5135267;27;20002;-40
2021/06/16 06:07:42;;;;;;;;;;;;;;;18.87;57.73;101586.56;5134974;27;19946;-40
2021/06/16 06:10:07;;;;;;;;;;;;;;;18.82;57.55;101578.31;5135028;27;19907;-40
2021/06/16 06:12:32;;;;;;;;;;;;;;;18.89;57.53;101578.09;5135149;27;19908;-40
2021/06/16 06:14:57;;;;;;;;;;;;;;;18.98;57.54;101579.19;5135176;27;19950;-41
2021/06/16 06:17:23;;;;;;;;;;;;;;;19.14;57.14;101569.94;5135147;27;19977;-40
2021/06/16 06:19:48;;;;;;;;;;;;;;;19.25;57.05;101566.13;5135746;27;19907;-40
2021/06/16 06:22:13;;;;;;;;;;;;;;;19.32;56.54;101567.75;5134951;27;20339;-40
2021/06/16 06:24:38;;;;;;;;;;;;;;;19.37;56.62;101556.78;5135551;27;19907;-40
2021/06/16 06:27:04;;;;;;;;;;;;;;;19.48;56.61;101550.25;5134994;27;19911;-40
2021/06/16 06:29:29;;;;;;;;;;;;;;;19.57;55.77;101556.84;5135234;27;20366;-40
2021/06/16 06:31:54;;;;;;;;;;;;;;;19.68;55.69;101550.28;5135579;27;19916;-40
2021/06/16 06:34:19;;;;;;;;;;;;;;;19.78;55.39;101542.03;5134663;27;20410;-40
2021/06/16 06:36:45;;;;;;;;;;;;;;;19.92;55.61;101547.78;5134862;28;19914;-40
2021/06/16 06:39:10;;;;;;;;;;;;;;;20.03;55.25;101548.59;5134529;28;20002;-40
2021/06/16 06:41:35;;;;;;;;;;;;;;;20.08;55.06;101545.00;5134707;28;19907;-40
2021/06/16 06:44:01;;;;;;;;;;;;;;;20.23;55.08;101536.75;5134808;27;19907;-41
2021/06/16 06:46:26;;;;;;;;;;;;;;;20.38;54.53;101538.63;5134781;28;19907;-40
2021/06/16 06:48:51;;;;;;;;;;;;;;;20.48;54.05;101527.63;5134755;27;19908;-41
2021/06/16 06:51:16;;;;;;;;;;;;;;;20.63;54.52;101524.81;5135075;28;20339;-40
2021/06/16 06:53:42;;;;;;;;;;;;;;;20.75;53.26;101525.31;5135598;27;20323;-41
2021/06/16 06:56:07;;;;;;;;;;;;;;;20.85;52.97;101526.34;5137486;27;19908;-41
2021/06/16 06:58:32;;;;;;;;;;;;;;;20.90;52.39;101515.34;5139198;27;19907;-40
2021/06/16 07:00:57;;;;;;;;;;;;;;;20.92;51.92;101518.59;5139042;27;19911;-40
2021/06/16 07:03:23;;;;;;;;;;;;;;;20.98;51.80;101510.03;5138698;27;19907;-40
2021/06/16 07:05:48;;;;;;;;;;;;;;;21.06;51.67;101511.38;5139610;27;19911;-40
2021/06/16 07:08:13;;;;;;;;;;;;;;;21.17;52.97;101507.44;5138989;27;19907;-40
2021/06/16 07:10:38;;;;;;;;;;;;;;;21.29;52.56;101505.16;5139350;27;19911;-40
2021/06/16 07:13:04;;;;;;;;;;;;;;;21.39;51.54;101508.97;5136985;27;19917;-40
2021/06/16 07:15:32;;;;;;;;;;;;;;;21.45;52.44;101496.81;5139492;27;19907;-40
2021/06/16 07:17:58;;;;;;;;;;;;;;;21.58;51.82;101493.41;5138814;27;19960;-40
2021/06/16 07:20:23;;;;;;;;;;;;;;;21.72;52.16;101496.31;5138452;27;19908;-40
2021/06/16 07:22:49;;;;;;;;;;;;;;;21.76;50.41;101492.66;5138191;27;20278;-40
2021/06/16 07:25:15;;;;;;;;;;;;;;;21.69;50.19;101492.19;5138450;27;19911;-40
2021/06/16 07:27:40;;;;;;;;;;;;;;;21.81;50.34;101494.53;5138334;27;19907;-40
2021/06/16 07:30:06;;;;;;;;;;;;;;;21.90;50.14;101494.72;5138340;27;19959;-40
2021/06/16 07:32:31;;;;;;;;;;;;;;;22.04;50.08;101490.16;5138609;27;19912;-40
2021/06/16 07:34:57;;;;;;;;;;;;;;;22.12;48.88;101486.81;5138154;27;19945;-40
2021/06/16 07:37:22;;;;;;;;;;;;;;;22.25;49.92;101483.38;5138094;27;19911;-40
2021/06/16 07:39:47;;;;;;;;;;;;;;;22.41;50.12;101474.91;5137857;27;19914;-40
2021/06/16 07:42:13;;;;;;;;;;;;;;;22.54;49.26;101479.66;5137665;27;19914;-40
2021/06/16 07:44:38;;;;;;;;;;;;;;;22.69;48.53;101486.91;5138884;27;19907;-40
2021/06/16 07:47:04;;;;;;;;;;;;;;;22.62;46.19;101476.25;5138823;27;20282;-40
2021/06/16 07:49:29;;;;;;;;;;;;;;;22.72;47.31;101481.63;5138474;27;20005;-40
2021/06/16 07:51:54;;;;;;;;;;;;;;;22.74;47.47;101473.91;5137857;27;19911;-41
2021/06/16 07:54:19;;;;;;;;;;;;;;;22.82;47.14;101477.91;5137861;27;19960;-41
2021/06/16 07:56:45;;;;;;;;;;;;;;;22.93;47.82;101475.84;5137818;27;19908;-41
2021/06/16 07:59:10;;;;;;;;;;;;;;;23.01;47.02;101476.00;5137689;27;19998;-40
2021/06/16 08:01:36;;;;;;;;;;;;;;;23.03;46.46;101472.94;5137924;27;19915;-40
2021/06/16 08:04:02;;;;;;;;;;;;;;;23.14;45.89;101466.16;5136072;27;19918;-40
2021/06/16 08:06:27;;;;;;;;;;;;;;;23.26;45.89;101460.97;5137752;27;19908;-41
2021/06/16 08:08:52;;;;;;;;;;;;;;;23.41;45.23;101459.88;5137211;27;19990;-41
2021/06/16 08:11:19;;;;;;;;;;;;;;;23.48;43.96;101467.78;5137561;27;19995;-41
2021/06/16 08:13:44;;;;;;;;;;;;;;;23.51;44.34;101458.88;5137452;27;19911;-41
2021/06/16 08:16:09;;;;;;;;;;;;;;;23.51;43.35;101462.47;5136433;27;19930;-41
2021/06/16 08:18:35;;;;;;;;;;;;;;;23.56;44.54;101456.84;5137438;27;20288;-41
2021/06/16 08:21:00;;;;;;;;;;;;;;;23.70;44.51;101451.38;5137352;27;19907;-40
2021/06/16 08:23:25;;;;;;;;;;;;;;;23.76;43.52;101454.88;5137283;27;19907;-41
2021/06/16 08:25:51;;;;;;;;;;;;;;;23.76;44.30;101455.69;5137575;27;20266;-40
2021/06/16 08:28:16;;;;;;;;;;;;;;;23.77;43.37;101448.25;5136826;27;20415;-41
2021/06/16 08:30:41;;;;;;;;;;;;;;;23.93;44.53;101452.34;5137228;27;19907;-41
2021/06/16 08:33:07;;;;;;;;;;;;;;;23.85;42.62;101453.03;5137686;27;19911;-40
2021/06/16 08:35:32;;;;;;;;;;;;;;;23.90;43.60;101448.22;5137659;27;20284;-40
2021/06/16 08:37:57;;;;;;;;;;;;;;;24.02;43.01;101444.16;5136738;27;19971;-41
2021/06/16 08:40:23;;;;;;;;;;;;;;;24.14;43.40;101436.16;5137270;27;19965;-40
2021/06/16 08:42:49;;;;;;;;;;;;;;;24.31;42.67;101439.13;5136618;27;19907;-40
2021/06/16 08:45:15;;;;;;;;;;;;;;;24.34;41.72;101432.16;5136862;27;19911;-41
2021/06/16 08:47:42;;;;;;;;;;;;;;;24.44;42.47;101425.59;5137172;27;19907;-41
2021/06/16 08:50:08;;;;;;;;;;;;;;;24.44;43.20;101425.59;5137062;27;19908;-41
2021/06/16 08:52:34;;;;;;;;;;;;;;;24.29;42.11;101424.78;5137279;27;19915;-41
2021/06/16 08:55:06;;;;;;;;;;;;;;;24.42;42.96;101419.59;5137260;27;19911;-41
2021/06/16 08:57:31;;;;;;;;;;;;;;;24.57;42.17;101424.75;5136620;27;19999;-41
2021/06/16 08:59:56;;;;;;;;;;;;;;;24.75;42.24;101423.78;5137270;27;19907;-40
2021/06/16 09:02:21;;;;;;;;;;;;;;;24.82;42.17;101420.59;5136425;27;19911;-41
2021/06/16 09:04:48;;;;;;;;;;;;;;;24.82;41.07;101421.41;5136192;27;19914;-41
2021/06/16 09:07:17;;;;;;;;;;;;;;;25.02;41.31;101419.28;5136481;27;20335;-41
2021/06/16 09:09:43;;;;;;;;;;;;;;;24.93;40.78;101417.25;5136160;27;19908;-41
2021/06/16 09:12:10;;;;;;;;;;;;;;;25.04;40.72;101411.50;5136900;27;19908;-41
2021/06/16 09:14:35;;;;;;;;;;;;;;;25.19;41.57;101416.66;5136449;27;20350;-41
2021/06/16 09:17:02;;;;;;;;;;;;;;;25.35;41.38;101417.91;5135905;27;19944;-41
2021/06/16 09:19:37;;;;;;;;;;;;;;;25.40;40.68;101415.00;5136051;27;19907;-41
2021/06/16 09:22:10;;;;;;;;;;;;;;;25.43;40.41;101414.38;5136676;27;20247;-41
2021/06/16 09:24:52;;;;;;;;;;;;;;;25.56;40.53;101418.16;5136459;27;19938;-40
2021/06/16 09:27:35;;;;;;;;;;;;;;;25.79;40.81;101409.81;5135800;27;20009;-41
2021/06/16 09:30:01;;;;;;;;;;;;;;;25.84;40.38;101418.00;5136105;27;20308;-41
2021/06/16 09:32:39;;;;;;;;;;;;;;;25.91;40.25;101413.63;5136055;27;19911;-41
2021/06/16 09:35:18;;;;;;;;;;;;;;;26.01;39.81;101403.38;5136220;27;19915;-41
2021/06/16 09:37:44;;;;;;;;;;;;;;;25.92;40.67;101390.31;5136161;27;20003;-41
2021/06/16 09:40:09;;;;;;;;;;;;;;;26.12;41.35;101397.22;5135920;27;19954;-41
2021/06/16 09:42:34;;;;;;;;;;;;;;;26.35;40.13;101395.16;5136009;27;19918;-41
2021/06/16 09:45:02;;;;;;;;;;;;;;;26.46;40.47;101395.66;5136322;27;20341;-41
2021/06/16 09:47:27;;;;;;;;;;;;;;;26.44;39.68;101393.19;5135366;27;19998;-41
2021/06/16 09:50:00;;;;;;;;;;;;;;;26.46;39.37;101383.78;5136490;27;19954;-41
2021/06/16 09:52:47;;;;;;;;;;;;;;;26.54;41.13;101385.72;5135713;27;19908;-41
2021/06/16 09:55:12;;;;;;;;;;;;;;;26.75;40.32;101383.94;5135585;27;19911;-39
2021/06/16 09:57:38;;;;;;;;;;;;;;;26.95;40.66;101380.47;5135762;27;19907;-39
2021/06/16 10:00:08;;;;;;;;;;;;;;;27.18;39.59;101374.72;5136262;27;20300;-39
2021/06/16 10:02:33;;;;;;;;;;;;;;;27.27;39.23;101369.97;5135647;27;19907;-39
2021/06/16 10:05:00;;;;;;;;;;;;;;;27.41;40.61;101375.31;5135707;27;20365;-39
2021/06/16 10:07:25;;;;;;;;;;;;;;;27.51;40.04;101374.13;5135593;27;19930;-39
2021/06/16 10:09:53;;;;;;;;;;;;;;;27.56;39.64;101369.22;5135562;27;19907;-39
2021/06/16 10:12:20;;;;;;;;;;;;;;;27.40;38.31;101368.13;5135278;27;20303;-39
2021/06/16 10:14:45;;;;;;;;;;;;;;;27.07;38.72;101370.66;5135511;27;19915;-39
2021/06/16 10:17:10;;;;;;;;;;;;;;;27.03;38.24;101369.66;5135514;27;20307;-39
2021/06/16 10:19:36;;;;;;;;;;;;;;;27.16;38.65;101361.19;5135126;27;19907;-39
2021/06/16 10:22:04;;;;;;;;;;;;;;;27.08;38.81;101359.25;5135014;27;20197;-39
2021/06/16 10:24:29;;;;;;;;;;;;;;;27.34;39.54;101359.19;5134829;27;19907;-39
2021/06/16 10:26:59;;;;;;;;;;;;;;;27.30;38.93;101365.72;5135417;27;19914;-39
2021/06/16 10:29:27;;;;;;;;;;;;;;;27.36;38.60;101365.19;5134969;27;19918;-39
2021/06/16 10:31:53;;;;;;;;;;;;;;;27.42;38.36;101363.88;5135655;27;19923;-40
2021/06/16 10:34:19;;;;;;;;;;;;;;;27.60;38.77;101363.81;5135224;27;20421;-39
2021/06/16 10:37:04;;;;;;;;;;;;;;;27.84;38.82;101369.59;5135248;27;19932;-39
2021/06/16 10:39:29;;;;;;;;;;;;;;;28.07;38.89;101369.31;5134894;27;19907;-39
2021/06/16 10:41:55;;;;;;;;;;;;;;;27.78;38.36;101354.28;5134788;28;20351;-39
2021/06/16 10:44:22;;;;;;;;;;;;;;;27.95;39.24;101358.91;5135704;27;19946;-39
2021/06/16 10:46:51;;;;;;;;;;;;;;;28.04;37.63;101364.41;5134595;27;19957;-39
2021/06/16 10:49:36;;;;;;;;;;;;;;;27.55;37.82;101359.25;5135659;27;19914;-39
2021/06/16 10:52:01;;;;;;;;;;;;;;;27.64;37.88;101356.44;5135191;28;19907;-39
2021/06/16 10:54:28;;;;;;;;;;;;;;;27.86;39.55;101356.16;5134474;27;20311;-40
2021/06/16 10:57:12;;;;;;;;;;;;;;;28.15;39.09;101348.97;5135055;27;20002;-41
2021/06/16 10:59:43;;;;;;;;;;;;;;;28.23;38.17;101345.31;5135037;27;19907;-41
2021/06/16 11:02:11;;;;;;;;;;;;;;;28.39;39.04;101340.78;5134785;27;19911;-41
2021/06/16 11:04:41;;;;;;;;;;;;;;;28.59;38.63;101341.13;5134943;28;19968;-41
2021/06/16 11:07:36;;;;;;;;;;;;;;;28.63;38.20;101333.72;5135524;27;19949;-41
2021/06/16 11:10:05;;;;;;;;;;;;;;;28.37;38.65;101329.19;5134403;27;20355;-41
2021/06/16 11:12:38;;;;;;;;;;;;;;;28.52;39.18;101329.72;5134655;27;19908;-41
2021/06/16 11:15:07;;;;;;;;;;;;;;;28.62;38.64;101319.00;5134319;27;19993;-39
2021/06/16 11:17:32;;;;;;;;;;;;;;;28.73;38.37;101316.59;5134495;27;19914;-40
2021/06/16 11:20:01;;;;;;;;;;;;;;;28.83;39.18;101313.38;5134876;28;19907;-40
2021/06/16 11:22:27;;;;;;;;;;;;;;;28.83;38.19;101313.38;5134431;27;19907;-40
2021/06/16 11:25:10;;;;;;;;;;;;;;;29.04;38.25;101304.16;5134807;27;20278;-40
2021/06/16 11:27:54;;;;;;;;;;;;;;;29.04;36.92;101296.66;5134413;27;20009;-40
2021/06/16 11:30:32;;;;;;;;;;;;;;;29.12;38.03;101300.47;5134218;27;19907;-40
2021/06/16 11:33:12;;;;;;;;;;;;;;;29.07;38.08;101293.16;5134233;27;20332;-40
2021/06/16 11:35:38;;;;;;;;;;;;;;;29.24;38.58;101292.16;5134436;27;20362;-40
2021/06/16 11:38:03;;;;;;;;;;;;;;;29.17;38.23;101289.13;5134594;27;20006;-40
2021/06/16 11:40:30;;;;;;;;;;;;;;;29.43;38.32;101295.19;5134010;27;19929;-40
2021/06/16 11:42:55;;;;;;;;;;;;;;;29.53;37.02;101290.31;5138542;27;19908;-40
2021/06/16 11:45:21;;;;;;;;;;;;;;;29.44;37.86;101291.22;5138869;27;19907;-40
2021/06/16 11:47:53;;;;;;;;;;;;;;;29.61;37.86;101286.59;5136677;27;19930;-40
2021/06/16 11:50:24;;;;;;;;;;;;;;;29.82;38.13;101272.50;5137869;27;19907;-40
2021/06/16 11:52:56;;;;;;;;;;;;;;;30.05;37.46;101281.19;5137443;27;20381;-40
2021/06/16 11:55:40;;;;;;;;;;;;;;;30.00;36.54;101277.47;5138490;27;19915;-40
2021/06/16 11:58:24;;;;;;;;;;;;;;;29.67;36.78;101280.44;5137844;27;19907;-40
2021/06/16 12:00:53;;;;;;;;;;;;;;;29.54;38.33;101275.22;5138231;27;19908;-40
2021/06/16 12:03:18;;;;;;;;;;;;;;;29.82;38.58;101272.50;5137354;27;19952;-40
2021/06/16 12:05:44;;;;;;;;;;;;;;;30.13;38.49;101272.69;5138182;27;19911;-41
2021/06/16 12:08:09;;;;;;;;;;;;;;;30.36;37.10;101272.97;5138098;27;19908;-40
2021/06/16 12:10:34;;;;;;;;;;;;;;;30.38;36.82;101265.06;5137574;27;20366;-40
2021/06/16 12:13:05;;;;;;;;;;;;;;;30.46;37.80;101261.31;5137475;27;19946;-40
2021/06/16 12:15:35;;;;;;;;;;;;;;;30.00;37.58;101257.13;5137506;27;19959;-40
2021/06/16 12:18:01;;;;;;;;;;;;;;;30.20;38.47;101258.16;5137407;27;19930;-40
2021/06/16 12:20:28;;;;;;;;;;;;;;;30.34;37.73;101257.75;5137521;27;19907;-40
2021/06/16 12:22:53;;;;;;;;;;;;;;;30.12;38.46;101256.31;5137633;27;19915;-40
2021/06/16 12:25:26;;;;;;;;;;;;;;;30.25;38.76;101257.88;5137643;27;20339;-40
2021/06/16 12:27:51;;;;;;;;;;;;;;;30.44;38.08;101249.66;5137150;27;20002;-40
2021/06/16 12:30:21;;;;;;;;;;;;;;;30.66;38.13;101253.88;5137724;27;19954;-40
2021/06/16 12:33:11;;;;;;;;;;;;;;;30.72;38.58;101251.66;5137188;27;19917;-40
2021/06/16 12:35:41;;;;;;;;;;;;;;;30.50;37.74;101231.53;5136775;27;19958;-40